createdAt,value
2023-05-14T00:02:28.305Z,100434.69
2023-05-14T00:05:30.513Z,100361.59
2023-05-14T00:08:32.547Z,100394.91
2023-05-14T00:11:34.537Z,100386.97
2023-05-14T00:14:36.620Z,100428.13
2023-05-14T00:17:42.626Z,100431.78
2023-05-14T00:20:44.766Z,100397.16
2023-05-14T00:23:46.790Z,100392.69
2023-05-14T00:26:48.803Z,100369.16
2023-05-14T00:29:50.841Z,100365.09
2023-05-14T00:32:54.267Z,100376.25
2023-05-14T00:35:56.284Z,100373.63
2023-05-14T00:38:58.336Z,100370.13
2023-05-14T00:42:00.403Z,100343.50
2023-05-14T00:45:02.582Z,100418.91
2023-05-14T00:48:08.494Z,100429.38
2023-05-14T00:51:11.058Z,100343.91
2023-05-14T00:54:14.015Z,100362.31
2023-05-14T00:57:16.114Z,100365.78
2023-05-14T01:00:18.542Z,100415.44
2023-05-14T01:03:22.201Z,100362.44
2023-05-14T01:06:35.299Z,100354.50
2023-05-14T01:09:44.646Z,100376.09
2023-05-14T01:12:58.001Z,100326.34
2023-05-14T01:16:01.092Z,100355.19
2023-05-14T01:19:07.853Z,100367.44
2023-05-14T01:22:12.109Z,100364.09
2023-05-14T01:25:14.135Z,100387.06
2023-05-14T01:28:20.655Z,100309.47
2023-05-14T01:31:28.122Z,100359.34
2023-05-14T01:34:31.517Z,100321.69
2023-05-14T01:37:36.734Z,100311.13
2023-05-14T01:40:44.249Z,100369.34
2023-05-14T01:43:46.722Z,100327.75
2023-05-14T01:46:48.767Z,100352.00
2023-05-14T01:49:51.182Z,100356.16
2023-05-14T01:52:56.844Z,100309.94
2023-05-14T01:55:59.138Z,100287.97
2023-05-14T01:59:02.742Z,100265.94
2023-05-14T02:02:04.859Z,100343.19
2023-05-14T02:05:07.954Z,100270.41
2023-05-14T02:08:11.424Z,100286.00
2023-05-14T02:11:13.470Z,100306.47
2023-05-14T02:14:15.932Z,100239.06
2023-05-14T02:17:18.152Z,100304.13
2023-05-14T02:20:20.137Z,100260.50
2023-05-14T02:23:34.108Z,100260.63
2023-05-14T02:26:40.227Z,100293.78
2023-05-14T02:29:42.426Z,100319.13
2023-05-14T02:32:44.495Z,100294.06
2023-05-14T02:35:46.641Z,100307.69
2023-05-14T02:38:50.070Z,100273.03
2023-05-14T02:41:52.146Z,100240.16
2023-05-14T02:44:54.210Z,100253.66
2023-05-14T02:47:59.122Z,100266.63
2023-05-14T02:51:01.214Z,100239.78
2023-05-14T02:54:04.875Z,100312.44
2023-05-14T02:57:06.912Z,100290.56
2023-05-14T03:00:10.158Z,100263.53
2023-05-14T03:03:12.593Z,100304.50
2023-05-14T03:06:15.009Z,100306.00
2023-05-14T03:09:18.496Z,100238.47
2023-05-14T03:12:21.279Z,100252.16
2023-05-14T03:15:23.283Z,100272.75
2023-05-14T03:18:25.569Z,100239.47
2023-05-14T03:21:27.707Z,100267.16
2023-05-14T03:24:31.707Z,100254.78
2023-05-14T03:27:34.709Z,100200.47
2023-05-14T03:30:36.989Z,100262.97
2023-05-14T03:33:39.047Z,100274.06
2023-05-14T03:36:41.054Z,100243.16
2023-05-14T03:39:44.455Z,100247.94
2023-05-14T03:42:46.488Z,100224.66
2023-05-14T03:45:52.631Z,100250.13
2023-05-14T03:48:54.760Z,100224.91
2023-05-14T03:51:58.318Z,100241.72
2023-05-14T03:55:01.784Z,100270.72
2023-05-14T03:58:05.966Z,100246.94
2023-05-14T04:01:07.919Z,100237.31
2023-05-14T04:04:10.364Z,100290.75
2023-05-14T04:07:12.473Z,100273.06
2023-05-14T04:10:15.912Z,100283.34
2023-05-14T04:13:21.046Z,100236.00
2023-05-14T04:16:25.325Z,100242.66
2023-05-14T04:19:27.393Z,100290.34
2023-05-14T04:22:29.391Z,100230.91
2023-05-14T04:25:32.832Z,100253.47
2023-05-14T04:28:34.875Z,100237.44
2023-05-14T04:31:36.961Z,100219.63
2023-05-14T04:34:38.932Z,100224.78
2023-05-14T04:37:41.581Z,100251.53
2023-05-14T04:40:44.908Z,100232.94
2023-05-14T04:43:49.931Z,100243.19
2023-05-14T04:46:51.870Z,100234.66
2023-05-14T04:49:53.859Z,100253.47
2023-05-14T04:52:56.242Z,100258.19
2023-05-14T04:55:59.618Z,100229.84
2023-05-14T04:59:01.830Z,100269.44
2023-05-14T05:02:04.039Z,100246.22
2023-05-14T05:05:06.554Z,100240.09
2023-05-14T05:08:11.298Z,100228.19
2023-05-14T05:11:14.718Z,100225.34
2023-05-14T05:14:16.855Z,100213.38
2023-05-14T05:17:18.914Z,100211.72
2023-05-14T05:20:21.218Z,100255.19
2023-05-14T05:23:23.301Z,100193.28
2023-05-14T05:26:27.355Z,100232.81
2023-05-14T05:29:29.281Z,100228.47
2023-05-14T05:32:31.764Z,100215.13
2023-05-14T05:35:33.818Z,100193.72
2023-05-14T05:38:35.803Z,100190.03
2023-05-14T05:41:39.459Z,100193.03
2023-05-14T05:44:41.532Z,100192.16
2023-05-14T05:47:44.116Z,100182.22
2023-05-14T05:50:49.253Z,100183.66
2023-05-14T05:53:51.568Z,100182.38
2023-05-14T05:56:55.040Z,100227.50
2023-05-14T05:59:57.162Z,100187.38
2023-05-14T06:02:59.227Z,100184.88
2023-05-14T06:06:03.677Z,100235.47
2023-05-14T06:09:07.113Z,100257.16
2023-05-14T06:12:11.246Z,100222.13
2023-05-14T06:15:13.417Z,100198.22
2023-05-14T06:18:17.824Z,100184.41
2023-05-14T06:21:20.060Z,100201.47
2023-05-14T06:24:22.074Z,100267.41
2023-05-14T06:27:25.722Z,100199.44
2023-05-14T06:30:27.807Z,100186.59
2023-05-14T06:33:31.158Z,100239.19
2023-05-14T06:36:33.398Z,100201.16
2023-05-14T06:39:35.659Z,100246.53
2023-05-14T06:42:39.176Z,100224.38
2023-05-14T06:45:41.222Z,100233.78
2023-05-14T06:48:43.177Z,100184.41
2023-05-14T06:51:45.819Z,100188.56
2023-05-14T06:54:47.797Z,100179.78
2023-05-14T06:57:51.344Z,100241.69
2023-05-14T07:00:53.389Z,100175.59
2023-05-14T07:03:55.642Z,100234.22
2023-05-14T07:06:57.751Z,100174.19
2023-05-14T07:09:59.690Z,100191.16
2023-05-14T07:13:03.708Z,100201.38
2023-05-14T07:16:06.820Z,100199.78
2023-05-14T07:19:08.984Z,100177.34
2023-05-14T07:22:11.065Z,100191.41
2023-05-14T07:25:13.178Z,100148.94
2023-05-14T07:28:16.571Z,100160.69
2023-05-14T07:31:21.654Z,100129.84
2023-05-14T07:34:23.768Z,100206.31
2023-05-14T07:37:26.310Z,100179.16
2023-05-14T07:40:28.245Z,100157.28
2023-05-14T07:43:31.897Z,100208.56
2023-05-14T07:46:33.860Z,100211.75
2023-05-14T07:49:36.052Z,100135.84
2023-05-14T07:52:37.982Z,100135.34
2023-05-14T07:55:40.250Z,100127.75
2023-05-14T07:58:44.149Z,100119.09
2023-05-14T08:01:46.090Z,100059.75
2023-05-14T08:04:48.128Z,100079.75
2023-05-14T08:07:50.105Z,100064.34
2023-05-14T08:10:52.059Z,100046.66
2023-05-14T08:13:55.536Z,100022.31
2023-05-14T08:16:57.540Z,100017.44
2023-05-14T08:19:59.552Z,100053.44
2023-05-14T08:23:01.705Z,100077.41
2023-05-14T08:26:03.763Z,100045.88
2023-05-14T08:29:09.282Z,100070.03
2023-05-14T08:32:22.710Z,100113.19
2023-05-14T08:35:29.140Z,100080.88
2023-05-14T08:38:31.624Z,100101.97
2023-05-14T08:41:34.621Z,100093.72
2023-05-14T08:44:44.747Z,100082.72
2023-05-14T08:47:51.879Z,100115.69
2023-05-14T08:50:54.238Z,100100.00
2023-05-14T08:53:59.272Z,100085.56
2023-05-14T08:57:01.924Z,100121.19
2023-05-14T09:00:13.550Z,100072.06
2023-05-14T09:03:18.882Z,100063.47
2023-05-14T09:06:21.680Z,100098.31
2023-05-14T09:09:23.887Z,100053.56
2023-05-14T09:12:26.383Z,100068.50
2023-05-14T09:15:33.018Z,100057.31
2023-05-14T09:18:36.728Z,100101.31
2023-05-14T09:21:39.008Z,100025.31
2023-05-14T09:24:41.575Z,100068.66
2023-05-14T09:27:50.336Z,100051.34
2023-05-14T09:30:53.798Z,100013.09
2023-05-14T09:33:55.802Z,100039.56
2023-05-14T09:37:01.557Z,100019.63
2023-05-14T09:40:06.939Z,100052.75
2023-05-14T09:43:12.213Z,100075.44
2023-05-14T09:46:16.140Z,99995.84
2023-05-14T09:49:18.568Z,100086.38
2023-05-14T09:52:20.584Z,99994.66
2023-05-14T09:55:23.421Z,100070.91
2023-05-14T09:58:25.582Z,100010.00
2023-05-14T10:01:29.768Z,100013.81
2023-05-14T10:04:34.235Z,100007.28
2023-05-14T10:07:41.780Z,99971.69
2023-05-14T10:10:43.797Z,99974.84
2023-05-14T10:13:50.285Z,99971.59
2023-05-14T10:16:54.426Z,99973.34
2023-05-14T10:19:59.172Z,99943.53
2023-05-14T10:23:01.212Z,99945.69
2023-05-14T10:26:05.309Z,99919.50
2023-05-14T10:29:07.860Z,99971.22
2023-05-14T10:32:13.258Z,99945.63
2023-05-14T10:35:20.984Z,99911.41
2023-05-14T10:38:27.229Z,99993.75
2023-05-14T10:41:29.330Z,99928.19
2023-05-14T10:44:33.332Z,99941.81
2023-05-14T10:47:39.001Z,99993.91
2023-05-14T10:50:43.239Z,99947.66
2023-05-14T10:53:45.345Z,99966.09
2023-05-14T10:56:47.356Z,99905.59
2023-05-14T10:59:53.285Z,99911.25
2023-05-14T11:02:57.821Z,99916.22
2023-05-14T11:06:03.583Z,99953.13
2023-05-14T11:09:06.583Z,99978.59
2023-05-14T11:12:09.349Z,99970.41
2023-05-14T11:15:13.501Z,99979.06
2023-05-14T11:18:28.277Z,99968.31
2023-05-14T11:21:31.985Z,99928.69
2023-05-14T11:24:34.144Z,99958.78
2023-05-14T11:27:37.979Z,99905.41
2023-05-14T11:30:39.940Z,99923.03
2023-05-14T11:33:43.456Z,99885.50
2023-05-14T11:36:45.570Z,99899.94
2023-05-14T11:39:49.466Z,99889.31
2023-05-14T11:42:56.523Z,99955.28
2023-05-14T11:45:58.523Z,99873.84
2023-05-14T11:49:04.523Z,99951.78
2023-05-14T11:52:09.136Z,99950.13
2023-05-14T11:55:12.147Z,99946.81
2023-05-14T11:58:14.306Z,99857.53
2023-05-14T12:01:16.280Z,99868.03
2023-05-14T12:04:22.866Z,99870.19
2023-05-14T12:07:29.473Z,99896.63
2023-05-14T12:10:42.105Z,99870.84
2023-05-14T12:13:44.151Z,99870.53
2023-05-14T12:16:47.286Z,99917.06
2023-05-14T12:19:52.382Z,99869.50
2023-05-14T12:22:54.485Z,99868.69
2023-05-14T12:26:01.219Z,99895.75
2023-05-14T12:29:04.525Z,99905.88
2023-05-14T12:32:10.301Z,99838.38
2023-05-14T12:35:13.668Z,99859.53
2023-05-14T12:38:16.012Z,99862.16
2023-05-14T12:41:18.105Z,99854.66
2023-05-14T12:44:22.065Z,99840.28
2023-05-14T12:47:27.077Z,99838.66
2023-05-14T12:50:30.826Z,99817.44
2023-05-14T12:53:35.334Z,99829.03
2023-05-14T12:56:38.771Z,99889.88
2023-05-14T12:59:41.217Z,99804.81
2023-05-14T13:02:44.054Z,99816.94
2023-05-14T13:05:47.679Z,99828.06
2023-05-14T13:08:49.578Z,99854.47
2023-05-14T13:11:51.550Z,99831.22
2023-05-14T13:14:53.434Z,99814.13
2023-05-14T13:17:55.634Z,99803.81
2023-05-14T13:20:58.909Z,99833.41
2023-05-14T13:24:01.129Z,99847.38
2023-05-14T13:27:03.087Z,99810.66
2023-05-14T13:30:05.771Z,99829.28
2023-05-14T13:33:07.809Z,99822.66
2023-05-14T13:36:13.370Z,99790.09
2023-05-14T13:39:15.521Z,99812.53
2023-05-14T13:42:17.387Z,99799.38
2023-05-14T13:45:19.388Z,99809.22
2023-05-14T13:48:21.430Z,99768.03
2023-05-14T13:51:24.718Z,99792.44
2023-05-14T13:54:26.646Z,99784.47
2023-05-14T13:57:28.598Z,99794.78
2023-05-14T14:00:30.557Z,99767.53
2023-05-14T14:03:32.408Z,99752.06
2023-05-14T14:06:35.944Z,99757.91
2023-05-14T14:09:37.900Z,99740.78
2023-05-14T14:12:39.904Z,99714.75
2023-05-14T14:15:41.850Z,99720.53
2023-05-14T14:18:45.280Z,99709.91
2023-05-14T14:24:55.882Z,99682.38
2023-05-14T14:27:57.938Z,99705.78
2023-05-14T14:31:00.134Z,99721.22
2023-05-14T14:34:02.124Z,99736.84
2023-05-14T14:37:06.953Z,99736.34
2023-05-14T14:40:12.182Z,99747.31
2023-05-14T14:43:14.138Z,99775.22
2023-05-14T14:46:16.243Z,99750.47
2023-05-14T14:49:18.186Z,99724.56
2023-05-14T14:52:21.602Z,99740.00
2023-05-14T14:55:23.701Z,99673.75
2023-05-14T14:58:26.183Z,99737.84
2023-05-14T15:01:28.253Z,99692.53
2023-05-14T15:04:33.352Z,99666.97
2023-05-14T15:07:36.798Z,99683.25
2023-05-14T15:10:38.900Z,99719.59
2023-05-14T15:13:42.004Z,99739.34
2023-05-14T15:16:43.988Z,99709.63
2023-05-14T15:19:46.081Z,99691.38
2023-05-14T15:22:52.356Z,99706.44
2023-05-14T15:25:54.302Z,99739.16
2023-05-14T15:28:56.360Z,99727.22
2023-05-14T15:31:58.373Z,99709.13
2023-05-14T15:35:01.188Z,99722.22
2023-05-14T15:38:08.521Z,99712.59
2023-05-14T15:41:10.570Z,99693.16
2023-05-14T15:44:12.519Z,99720.22
2023-05-14T15:47:14.396Z,99653.78
2023-05-14T15:50:16.266Z,99701.94
2023-05-14T15:53:21.984Z,99670.22
2023-05-14T15:56:23.685Z,99688.38
2023-05-14T15:59:25.691Z,99669.28
2023-05-14T16:02:33.365Z,99642.38
2023-05-14T16:05:35.485Z,99642.22
2023-05-14T16:08:38.942Z,99599.91
2023-05-14T16:11:40.819Z,99595.97
2023-05-14T16:14:42.707Z,99584.81
2023-05-14T16:17:44.811Z,99615.69
2023-05-14T16:20:48.905Z,99591.28
2023-05-14T16:23:52.227Z,99651.06
2023-05-14T16:26:54.304Z,99662.84
2023-05-14T16:29:56.156Z,99656.19
2023-05-14T16:32:58.063Z,99662.00
2023-05-14T16:35:59.987Z,99666.66
2023-05-14T16:39:07.407Z,99656.88
2023-05-14T16:42:09.871Z,99664.81
2023-05-14T16:45:12.185Z,99651.56
2023-05-14T16:48:14.097Z,99639.13
2023-05-14T16:51:16.075Z,99609.41
2023-05-14T16:54:19.441Z,99626.84
2023-05-14T16:57:21.402Z,99617.22
2023-05-14T17:00:23.474Z,99617.41
2023-05-14T17:03:25.461Z,99614.09
2023-05-14T17:06:27.489Z,99594.50
2023-05-14T17:09:31.359Z,99584.38
2023-05-14T17:12:33.263Z,99614.09
2023-05-14T17:15:35.446Z,99603.78
2023-05-14T17:18:38.213Z,99561.13
2023-05-14T17:21:40.281Z,99551.22
2023-05-14T17:24:43.741Z,99548.25
2023-05-14T17:27:47.599Z,99588.19
2023-05-14T17:30:49.507Z,99556.53
2023-05-14T17:33:51.576Z,99564.81
2023-05-14T17:36:53.586Z,99562.81
2023-05-14T17:39:57.009Z,99565.16
2023-05-14T17:42:58.906Z,99585.38
2023-05-14T17:46:02.171Z,99572.94
2023-05-14T17:49:04.070Z,99501.47
2023-05-14T17:52:06.795Z,99527.31
2023-05-14T17:55:10.139Z,99575.41
2023-05-14T17:58:13.510Z,99561.50
2023-05-14T18:01:15.513Z,99547.72
2023-05-14T18:04:18.736Z,99538.94
2023-05-14T18:07:23.080Z,99536.16
2023-05-14T18:10:27.873Z,99556.84
2023-05-14T18:13:29.919Z,99524.53
2023-05-14T18:16:31.958Z,99539.44
2023-05-14T18:19:34.327Z,99539.78
2023-05-14T18:22:36.671Z,99535.31
2023-05-14T18:25:40.029Z,99550.88
2023-05-14T18:28:42.057Z,99549.53
2023-05-14T18:31:44.156Z,99560.16
2023-05-14T18:34:46.083Z,99545.75
2023-05-14T18:37:49.009Z,99504.28
2023-05-14T18:40:52.405Z,99531.31
2023-05-14T18:43:54.672Z,99542.72
2023-05-14T18:46:57.052Z,99548.84
2023-05-14T18:50:01.869Z,99527.66
2023-05-14T18:53:04.506Z,99562.66
2023-05-14T18:56:09.330Z,99511.06
2023-05-14T18:59:11.977Z,99551.19
2023-05-14T19:02:16.817Z,99548.56
2023-05-14T19:05:19.889Z,99538.59
2023-05-14T19:08:22.415Z,99534.63
2023-05-14T19:11:26.664Z,99537.75
2023-05-14T19:14:31.342Z,99515.53
2023-05-14T19:17:34.205Z,99530.44
2023-05-14T19:20:36.644Z,99517.69
2023-05-14T19:23:39.814Z,99522.66
2023-05-14T19:26:43.367Z,99515.06
2023-05-14T19:29:46.966Z,99528.31
2023-05-14T19:32:49.640Z,99507.59
2023-05-14T19:35:52.334Z,99533.44
2023-05-14T19:38:54.772Z,99532.78
2023-05-14T19:41:58.149Z,99519.34
2023-05-14T19:45:00.176Z,99469.94
2023-05-14T19:48:02.546Z,99511.56
2023-05-14T19:51:04.491Z,99498.78
2023-05-14T19:54:06.952Z,99486.03
2023-05-14T19:57:11.212Z,99499.59
2023-05-14T20:00:14.504Z,99510.88
2023-05-14T20:03:16.541Z,99525.28
2023-05-14T20:06:18.842Z,99506.25
2023-05-14T20:09:21.319Z,99500.00
2023-05-14T20:12:25.195Z,99485.66
2023-05-14T20:15:27.380Z,99480.94
2023-05-14T20:18:29.514Z,99511.06
2023-05-14T20:21:32.178Z,99477.06
2023-05-14T20:24:34.105Z,99449.44
2023-05-14T20:27:37.545Z,99492.41
2023-05-14T20:30:40.346Z,99487.25
2023-05-14T20:33:42.358Z,99457.47
2023-05-14T20:36:44.545Z,99404.63
2023-05-14T20:39:46.859Z,99414.41
2023-05-14T20:42:50.531Z,99470.84
2023-05-14T20:45:52.483Z,99454.91
2023-05-14T20:48:55.123Z,99464.03
2023-05-14T20:51:59.316Z,99420.47
2023-05-14T20:55:01.970Z,99422.81
2023-05-14T20:58:05.791Z,99414.53
2023-05-14T21:01:08.219Z,99440.13
2023-05-14T21:04:10.726Z,99401.69
2023-05-14T21:07:12.787Z,99453.13
2023-05-14T21:10:14.697Z,99445.16
2023-05-14T21:13:17.966Z,99402.06
2023-05-14T21:16:20.296Z,99384.72
2023-05-14T21:19:22.866Z,99405.88
2023-05-14T21:22:25.136Z,99390.69
2023-05-14T21:25:27.300Z,99420.00
2023-05-14T21:28:31.424Z,99387.38
2023-05-14T21:31:36.096Z,99424.66
2023-05-14T21:34:38.278Z,99390.13
2023-05-14T21:37:40.648Z,99349.22
2023-05-14T21:40:42.722Z,99381.44
2023-05-14T21:43:46.148Z,99396.31
2023-05-14T21:46:48.249Z,99361.53
2023-05-14T21:49:50.128Z,99310.28
2023-05-14T21:52:52.027Z,99372.09
2023-05-14T21:55:55.403Z,99332.72
2023-05-14T21:58:58.717Z,99335.50
2023-05-14T22:05:06.159Z,99373.97
2023-05-14T22:08:08.053Z,99379.59
2023-05-14T22:11:10.022Z,99375.28
2023-05-14T22:14:13.551Z,99342.03
2023-05-14T22:17:15.430Z,99377.13
2023-05-14T22:20:17.534Z,99374.34
2023-05-14T22:23:19.382Z,99330.53
2023-05-14T22:26:24.434Z,99349.19
2023-05-14T22:29:27.937Z,99368.28
2023-05-14T22:32:30.060Z,99354.69
2023-05-14T22:35:32.105Z,99350.19
2023-05-14T22:38:34.286Z,99351.00
2023-05-14T22:41:36.509Z,99360.13
2023-05-14T22:44:39.766Z,99329.88
2023-05-14T22:47:41.684Z,99319.63
2023-05-14T22:50:43.798Z,99341.69
2023-05-14T22:53:47.191Z,99365.13
2023-05-14T22:56:49.268Z,99350.97
2023-05-14T22:59:55.140Z,99352.63
2023-05-14T23:02:57.116Z,99376.13
2023-05-14T23:05:59.233Z,99350.59
2023-05-14T23:09:01.214Z,99324.06
2023-05-14T23:12:03.210Z,99315.13
2023-05-14T23:15:07.403Z,99364.16
2023-05-14T23:18:09.471Z,99338.31
2023-05-14T23:21:12.375Z,99352.28
2023-05-14T23:24:14.274Z,99326.88
2023-05-14T23:27:16.329Z,99347.16
2023-05-14T23:30:19.805Z,99337.53
2023-05-14T23:33:21.692Z,99324.97
2023-05-14T23:36:24.182Z,99307.72
2023-05-14T23:39:26.291Z,99305.19
2023-05-14T23:42:28.313Z,99322.28
2023-05-14T23:45:31.724Z,99309.44
2023-05-14T23:48:33.579Z,99287.66
2023-05-14T23:51:38.168Z,99303.06
2023-05-14T23:54:40.027Z,99299.63
2023-05-14T23:57:42.011Z,99259.34
